Hlavní strana
METAR-TAF:

METAR-TAF

Letiště :

Džíbútí, Džibutsko

zeměpisná šířka: 11-33N, zeměpisná délka: 043-10E, výška: 49 m

Aktuální stav počasí

Zpráva byla vytvořena před 9 hodinami a 10 minutami, v 17:00 UTC
Bezvětří
Teplota 27°C
Vlhkost vzduchu 79%
Tlak 1013 hPa
Viditelnost 10 km a více
Skoro jasno ve výšce 2300 ft

METAR: HDAM 251700Z 00000KT 9999 FEW023 27/23 Q1013

Čas: 05:10 (02:10 UTC)

Předpověď počasí

Zpráva byla vytvořena před 3 hodinami a 10 minutami, v 23:00 UTC
Předpověď platná od 26 v 00 UTC do 26 v 24 UTC
Severní vítr kt
Viditelnost 10 km a více
Polojasno ve výšce 2000 ft
Změna
od 26 v 06 UTC do 26 v 12 UTC
vítr z různých směrů 5 kt
Polojasno ve výšce 2300 ft
Změna
od 26 v 12 UTC do 26 v 15 UTC
Východní vítr 15 kt
Změna
od 26 v 15 UTC do 26 v 18 UTC
vítr z různých směrů 5 kt
Skoro jasno ve výšce 2000 ft

TAF: HDAM 252300Z 2600/2624 00000KT 9999 SCT020 BECMG 2606/2612 VRB05KT SCT023 BECMG 2612/2615 08015KT BECMG 2615/2618 VRB05KT FEW020

Stav a předpovědi počasí z více než 4 000 letišť (zprávy METAR a TAF).

Červené a žluté tečky na mapě představují dostupné meteorologické stanice.

Když kurzor umístíte na tečku, zobrazí se název stanice.

Pak kliknutím zobrazíte stav a předpověď počasí.

Chcete-li změnit mapu, kliknutím na zelené tlačítko se znaménkem +mapu přiblížíte, kliknutím na zelené tlačítko se znaménkem – mapu oddálíte a kliknutím na zelené šipky přejdete na sousední mapy.


METAR-TAF: